Time;durP1;ratioP1;P1;durP2;ratioP2;P2;SDS_P1;SDS_P2;PMS_P1;PMS_P2;Temp;Humidity;BMP_temperature;BMP_pressure;BME280_temperature;BME280_humidity;BME280_pressure;Samples;Min_cycle;Max_cycle;Signal;HPM_P1;HPM_P2
2021/08/08 00:01:35;;;;;;;;;;;;;;;;;;4954533;28;20678;-85
2021/08/08 00:04:05;;;;;;;;;;;;;;;;;;4988220;28;19925;-84
2021/08/08 00:06:42;;;;;;;;;;;;;;;;;;4978524;28;19964;-84
2021/08/08 00:09:12;;;;;;;;;;;;;;;;;;4971496;28;19933;-87
2021/08/08 00:11:42;;;;;;;;;;;;;;;;;;4971691;28;19940;-86
2021/08/08 00:14:14;;;;;;;;;;;;;;;;;;5001601;28;20309;-84
2021/08/08 00:16:45;;;;;;;;;;;;;;;;;;4974256;28;20555;-86
2021/08/08 00:19:14;;;;;;;;;;;;;;;;;;4984106;28;19934;-85
2021/08/08 00:21:44;;;;;;;;;;;;;;;;;;4969338;28;22279;-85
2021/08/08 00:24:13;;;;;;;;;;;;;;;;;;4983383;28;19932;-84
2021/08/08 00:26:43;;;;;;;;;;;;;;;;;;4975289;28;20170;-86
2021/08/08 00:29:11;;;;;;;;;;;;;;;;;;4978757;28;19925;-86
2021/08/08 00:31:40;;;;;;;;;;;;;;;;;;4971818;28;20314;-87
2021/08/08 00:34:12;;;;;;;;;;;;;;;;;;4987299;28;20299;-86
2021/08/08 00:36:41;;;;;;;;;;;;;;;;;;5005898;28;20339;-87
2021/08/08 00:39:13;;;;;;;;;;;;;;;;;;4967866;28;22168;-87
2021/08/08 00:41:44;;;;;;;;;;;;;;;;;;4989485;28;19929;-85
2021/08/08 00:44:14;;;;;;;;;;;;;;;;;;5008847;28;19940;-84
2021/08/08 00:46:47;;;;;;;;;;;;;;;;;;4971561;28;19933;-87
2021/08/08 00:49:22;;;;;;;;;;;;;;;;;;4966885;28;19937;-87
2021/08/08 00:51:53;;;;;;;;;;;;;;;;;;4990771;28;20387;-84
2021/08/08 00:54:28;;;;;;;;;;;;;;;;;;4977758;28;19928;-86
2021/08/08 00:56:59;;;;;;;;;;;;;;;;;;4988285;28;19975;-86
2021/08/08 00:59:31;;;;;;;;;;;;;;;;;;4979852;28;19925;-86
2021/08/08 01:02:02;;;;;;;;;;;;;;;;;;4968502;28;19931;-87
2021/08/08 01:04:35;;;;;;;;;;;;;;;;;;4972317;28;19925;-84
2021/08/08 01:07:09;;;;;;;;;;;;;;;;;;4977369;28;19925;-83
2021/08/08 01:09:40;;;;;;;;;;;;;;;;;;4981009;28;19936;-86
2021/08/08 01:12:09;;;;;;;;;;;;;;;;;;4980542;28;19933;-81
2021/08/08 01:14:42;;;;;;;;;;;;;;;;;;4964484;28;19937;-83
2021/08/08 01:17:11;;;;;;;;;;;;;;;;;;4974333;28;20001;-83
2021/08/08 01:19:50;;;;;;;;;;;;;;;;;;4978113;28;20428;-84
2021/08/08 01:22:23;;;;;;;;;;;;;;;;;;4983154;28;19940;-84
2021/08/08 01:24:54;;;;;;;;;;;;;;;;;;4986539;28;20113;-87
2021/08/08 01:27:33;;;;;;;;;;;;;;;;;;4986912;28;19937;-88
2021/08/08 01:30:15;;;;;;;;;;;;;;;;;;4975916;28;19940;-86
2021/08/08 01:36:30;;;;;;;;;;;;;;;;;;5004737;28;19933;-84
2021/08/08 01:39:08;;;;;;;;;;;;;;;;;;4984229;28;19925;-85
2021/08/08 01:42:24;;;;;;;;;;;;;;;;;;4993159;28;19925;-84
2021/08/08 01:44:55;;;;;;;;;;;;;;;;;;4975113;28;19926;-87
2021/08/08 01:47:29;;;;;;;;;;;;;;;;;;4999775;28;19929;-86
2021/08/08 01:50:04;;;;;;;;;;;;;;;;;;4989682;28;19925;-88
2021/08/08 01:52:40;;;;;;;;;;;;;;;;;;5013036;28;19936;-88
2021/08/08 01:55:45;;;;;;;;;;;;;;;;;;4991404;28;19925;-86
2021/08/08 01:58:27;;;;;;;;;;;;;;;;;;4981872;28;19929;-86
2021/08/08 02:01:01;;;;;;;;;;;;;;;;;;4976634;28;19926;-85
2021/08/08 02:03:36;;;;;;;;;;;;;;;;;;4992560;28;19925;-89
2021/08/08 02:06:07;;;;;;;;;;;;;;;;;;4980335;28;19929;-87
2021/08/08 02:08:39;;;;;;;;;;;;;;;;;;4994643;28;19941;-85
2021/08/08 02:11:25;;;;;;;;;;;;;;;;;;4982038;28;19925;-86
2021/08/08 02:14:38;;;;;;;;;;;;;;;;;;4989354;28;20303;-87
2021/08/08 02:17:32;;;;;;;;;;;;;;;;;;5010049;28;19933;-87
2021/08/08 02:23:30;;;;;;;;;;;;;;;;;;4991220;28;20319;-86
2021/08/08 02:26:05;;;;;;;;;;;;;;;;;;4999109;28;19932;-87
2021/08/08 02:28:43;;;;;;;;;;;;;;;;;;4994513;28;19932;-84
2021/08/08 02:31:17;;;;;;;;;;;;;;;;;;4995492;28;19932;-87
2021/08/08 02:33:55;;;;;;;;;;;;;;;;;;5006260;28;19925;-85
2021/08/08 02:36:24;;;;;;;;;;;;;;;;;;5004316;28;19960;-81
2021/08/08 02:39:06;;;;;;;;;;;;;;;;;;4989902;28;19936;-83
2021/08/08 02:42:31;;;;;;;;;;;;;;;;;;4993157;28;19929;-85
2021/08/08 02:53:44;;;;;;;;;;;;;;;;;;4922722;28;19933;-87
2021/08/08 02:56:37;;;;;;;;;;;;;;;;;;4949371;28;19933;-87
2021/08/08 02:59:21;;;;;;;;;;;;;;;;;;4999018;28;19956;-85
2021/08/08 03:01:52;;;;;;;;;;;;;;;;;;4996606;28;19929;-84
2021/08/08 03:04:27;;;;;;;;;;;;;;;;;;4996486;28;19948;-85
2021/08/08 03:07:03;;;;;;;;;;;;;;;;;;5001366;28;19925;-87
2021/08/08 03:09:33;;;;;;;;;;;;;;;;;;4983141;28;19925;-86
2021/08/08 03:12:03;;;;;;;;;;;;;;;;;;4984757;28;20439;-83
2021/08/08 03:14:39;;;;;;;;;;;;;;;;;;4982412;28;19996;-86
2021/08/08 03:17:11;;;;;;;;;;;;;;;;;;4983686;28;19925;-85
2021/08/08 03:19:54;;;;;;;;;;;;;;;;;;4994211;28;20403;-85
2021/08/08 03:25:23;;;;;;;;;;;;;;;;;;4980228;28;19932;-88
2021/08/08 03:27:53;;;;;;;;;;;;;;;;;;4981568;28;20311;-83
2021/08/08 03:30:24;;;;;;;;;;;;;;;;;;4991583;28;20310;-84
2021/08/08 03:36:37;;;;;;;;;;;;;;;;;;5017990;28;19936;-83
2021/08/08 03:39:32;;;;;;;;;;;;;;;;;;4991664;28;19925;-86
2021/08/08 03:42:02;;;;;;;;;;;;;;;;;;4999443;28;19941;-85
2021/08/08 03:44:36;;;;;;;;;;;;;;;;;;4989845;28;19929;-87
2021/08/08 03:47:06;;;;;;;;;;;;;;;;;;4978492;28;20676;-84
2021/08/08 03:49:35;;;;;;;;;;;;;;;;;;4981416;28;19932;-84
2021/08/08 03:52:05;;;;;;;;;;;;;;;;;;4983530;28;19925;-87
2021/08/08 03:54:34;;;;;;;;;;;;;;;;;;4993228;28;20430;-84
2021/08/08 03:57:02;;;;;;;;;;;;;;;;;;5010212;28;22944;-82
2021/08/08 03:59:32;;;;;;;;;;;;;;;;;;5001064;28;19929;-85
2021/08/08 04:02:03;;;;;;;;;;;;;;;;;;4992568;28;19936;-85
2021/08/08 04:04:33;;;;;;;;;;;;;;;;;;4987349;28;19933;-85
2021/08/08 04:07:02;;;;;;;;;;;;;;;;;;5000818;28;19936;-84
2021/08/08 04:09:30;;;;;;;;;;;;;;;;;;4980995;28;19932;-85
2021/08/08 04:11:59;;;;;;;;;;;;;;;;;;4989271;28;19929;-86
2021/08/08 04:14:27;;;;;;;;;;;;;;;;;;5005432;28;20306;-83
2021/08/08 04:16:56;;;;;;;;;;;;;;;;;;4993776;28;19974;-83
2021/08/08 04:19:27;;;;;;;;;;;;;;;;;;4994779;28;20308;-81
2021/08/08 04:21:55;;;;;;;;;;;;;;;;;;4979049;28;19925;-85
2021/08/08 04:24:24;;;;;;;;;;;;;;;;;;4984630;28;20418;-81
2021/08/08 04:26:52;;;;;;;;;;;;;;;;;;4982092;28;19929;-84
2021/08/08 04:29:21;;;;;;;;;;;;;;;;;;4979434;28;19925;-86
2021/08/08 04:31:50;;;;;;;;;;;;;;;;;;4983547;28;19930;-82
2021/08/08 04:34:18;;;;;;;;;;;;;;;;;;5013531;28;19936;-81
2021/08/08 04:36:48;;;;;;;;;;;;;;;;;;4995269;28;19929;-82
2021/08/08 04:39:17;;;;;;;;;;;;;;;;;;4995029;28;20442;-82
2021/08/08 04:41:45;;;;;;;;;;;;;;;;;;4977919;28;20868;-88
2021/08/08 04:44:14;;;;;;;;;;;;;;;;;;4992562;28;20311;-82
2021/08/08 04:46:46;;;;;;;;;;;;;;;;;;4979283;28;20311;-82
2021/08/08 04:49:14;;;;;;;;;;;;;;;;;;4988971;28;19926;-84
2021/08/08 04:51:44;;;;;;;;;;;;;;;;;;4965827;28;19925;-81
2021/08/08 04:54:13;;;;;;;;;;;;;;;;;;4989288;28;23888;-81
2021/08/08 04:56:43;;;;;;;;;;;;;;;;;;4991300;28;19929;-88
2021/08/08 04:59:11;;;;;;;;;;;;;;;;;;5003125;28;20518;-83
2021/08/08 05:01:40;;;;;;;;;;;;;;;;;;4976197;28;20028;-82
2021/08/08 05:04:10;;;;;;;;;;;;;;;;;;5007805;28;19929;-81
2021/08/08 05:06:38;;;;;;;;;;;;;;;;;;4981461;28;19934;-83
2021/08/08 05:09:07;;;;;;;;;;;;;;;;;;4982126;28;19926;-84
2021/08/08 05:11:37;;;;;;;;;;;;;;;;;;5002591;28;19925;-85
2021/08/08 05:14:06;;;;;;;;;;;;;;;;;;4994297;28;19933;-86
2021/08/08 05:16:38;;;;;;;;;;;;;;;;;;4976544;28;20133;-84
2021/08/08 05:19:06;;;;;;;;;;;;;;;;;;4992385;28;19941;-86
2021/08/08 05:21:35;;;;;;;;;;;;;;;;;;4996258;28;19932;-83
2021/08/08 05:24:03;;;;;;;;;;;;;;;;;;4985387;28;19926;-81
2021/08/08 05:26:32;;;;;;;;;;;;;;;;;;4970716;28;21864;-84
2021/08/08 05:29:02;;;;;;;;;;;;;;;;;;4987781;28;20350;-83
2021/08/08 05:31:32;;;;;;;;;;;;;;;;;;4974823;28;19932;-84
2021/08/08 05:34:00;;;;;;;;;;;;;;;;;;4990888;28;19933;-81
2021/08/08 05:36:28;;;;;;;;;;;;;;;;;;4979670;28;19936;-81
2021/08/08 05:38:58;;;;;;;;;;;;;;;;;;4970409;28;19937;-87
2021/08/08 05:41:26;;;;;;;;;;;;;;;;;;4990381;28;20952;-87
2021/08/08 05:43:54;;;;;;;;;;;;;;;;;;4989758;28;19940;-81
2021/08/08 05:46:24;;;;;;;;;;;;;;;;;;4972906;28;19933;-82
2021/08/08 05:48:53;;;;;;;;;;;;;;;;;;4988263;28;21041;-83
2021/08/08 05:51:23;;;;;;;;;;;;;;;;;;4993102;28;19925;-81
2021/08/08 05:53:56;;;;;;;;;;;;;;;;;;4990187;28;19929;-85
2021/08/08 05:56:25;;;;;;;;;;;;;;;;;;4990410;28;19940;-85
2021/08/08 05:58:53;;;;;;;;;;;;;;;;;;4974847;28;19940;-82
2021/08/08 06:01:21;;;;;;;;;;;;;;;;;;4977904;28;19926;-83
2021/08/08 06:03:52;;;;;;;;;;;;;;;;;;4990998;28;19940;-83
2021/08/08 06:06:20;;;;;;;;;;;;;;;;;;4998370;28;19940;-82
2021/08/08 06:08:49;;;;;;;;;;;;;;;;;;4980129;28;19933;-83
2021/08/08 06:11:17;;;;;;;;;;;;;;;;;;5004044;28;20315;-85
2021/08/08 06:13:46;;;;;;;;;;;;;;;;;;4991749;28;19932;-86
2021/08/08 06:16:14;;;;;;;;;;;;;;;;;;4997970;28;20493;-85
2021/08/08 06:18:43;;;;;;;;;;;;;;;;;;4999247;28;19925;-83
2021/08/08 06:21:13;;;;;;;;;;;;;;;;;;5010843;28;19949;-81
2021/08/08 06:23:49;;;;;;;;;;;;;;;;;;5000644;28;19925;-81
2021/08/08 06:26:17;;;;;;;;;;;;;;;;;;4991972;28;19933;-81
2021/08/08 06:28:46;;;;;;;;;;;;;;;;;;4989690;28;19932;-87
2021/08/08 06:31:15;;;;;;;;;;;;;;;;;;4995556;28;19933;-84
2021/08/08 06:33:43;;;;;;;;;;;;;;;;;;4993110;28;19939;-81
2021/08/08 06:36:13;;;;;;;;;;;;;;;;;;4989996;28;19936;-83
2021/08/08 06:38:42;;;;;;;;;;;;;;;;;;5001006;28;19930;-89
2021/08/08 06:41:11;;;;;;;;;;;;;;;;;;4996054;28;19925;-82
2021/08/08 06:43:39;;;;;;;;;;;;;;;;;;5005494;28;19933;-84
2021/08/08 06:46:08;;;;;;;;;;;;;;;;;;4979191;28;20298;-82
2021/08/08 06:48:38;;;;;;;;;;;;;;;;;;4996590;28;19933;-88
2021/08/08 06:51:07;;;;;;;;;;;;;;;;;;4971765;28;20296;-82
2021/08/08 06:53:40;;;;;;;;;;;;;;;;;;4994556;28;19932;-85
2021/08/08 06:56:10;;;;;;;;;;;;;;;;;;4991199;28;19932;-82
2021/08/08 06:58:41;;;;;;;;;;;;;;;;;;4989440;28;19948;-86
2021/08/08 07:01:14;;;;;;;;;;;;;;;;;;4985795;28;21141;-87
2021/08/08 07:03:43;;;;;;;;;;;;;;;;;;4988921;28;19940;-87
2021/08/08 07:06:11;;;;;;;;;;;;;;;;;;4972125;28;19937;-83
2021/08/08 07:08:42;;;;;;;;;;;;;;;;;;4973490;28;19929;-86
2021/08/08 07:11:12;;;;;;;;;;;;;;;;;;4987183;28;19933;-83
2021/08/08 07:13:41;;;;;;;;;;;;;;;;;;4992045;28;19925;-81
2021/08/08 07:16:11;;;;;;;;;;;;;;;;;;5025134;28;19925;-87
2021/08/08 07:18:43;;;;;;;;;;;;;;;;;;5007734;28;19933;-82
2021/08/08 07:21:11;;;;;;;;;;;;;;;;;;4998314;28;19925;-81
2021/08/08 07:23:42;;;;;;;;;;;;;;;;;;5018552;28;20547;-81
2021/08/08 07:26:13;;;;;;;;;;;;;;;;;;4988804;28;19933;-84
2021/08/08 07:28:44;;;;;;;;;;;;;;;;;;4995071;28;19933;-83
2021/08/08 07:31:13;;;;;;;;;;;;;;;;;;4993794;28;19925;-84
2021/08/08 07:33:43;;;;;;;;;;;;;;;;;;4993270;28;19936;-83
2021/08/08 07:36:12;;;;;;;;;;;;;;;;;;4999212;28;20284;-83
2021/08/08 07:38:44;;;;;;;;;;;;;;;;;;4999752;28;19925;-84
2021/08/08 07:41:15;;;;;;;;;;;;;;;;;;5007278;28;20318;-82
2021/08/08 07:43:47;;;;;;;;;;;;;;;;;;5011457;28;19925;-82
2021/08/08 07:46:19;;;;;;;;;;;;;;;;;;5001436;28;19925;-85
2021/08/08 07:48:54;;;;;;;;;;;;;;;;;;5000791;28;19925;-86
2021/08/08 07:51:26;;;;;;;;;;;;;;;;;;5026139;28;19925;-84
2021/08/08 07:53:58;;;;;;;;;;;;;;;;;;5016262;28;19924;-85
2021/08/08 07:56:28;;;;;;;;;;;;;;;;;;5017435;28;20311;-83
2021/08/08 07:58:57;;;;;;;;;;;;;;;;;;4992207;28;19936;-87
2021/08/08 08:01:26;;;;;;;;;;;;;;;;;;4998148;28;20288;-87
2021/08/08 08:04:00;;;;;;;;;;;;;;;;;;4995908;28;19952;-88
2021/08/08 08:06:36;;;;;;;;;;;;;;;;;;4977686;28;19932;-88
2021/08/08 08:09:15;;;;;;;;;;;;;;;;;;4994531;28;20395;-86
2021/08/08 08:11:50;;;;;;;;;;;;;;;;;;5000025;28;19925;-86
2021/08/08 08:14:30;;;;;;;;;;;;;;;;;;4986775;28;19925;-86
2021/08/08 08:17:06;;;;;;;;;;;;;;;;;;5002648;28;19929;-85
2021/08/08 08:19:38;;;;;;;;;;;;;;;;;;4984504;28;20517;-80
2021/08/08 08:22:10;;;;;;;;;;;;;;;;;;4990706;28;19930;-86
2021/08/08 08:24:42;;;;;;;;;;;;;;;;;;4990792;28;19932;-86
2021/08/08 08:27:10;;;;;;;;;;;;;;;;;;4994252;28;19973;-80
2021/08/08 08:29:39;;;;;;;;;;;;;;;;;;4985920;28;19930;-84
2021/08/08 08:32:08;;;;;;;;;;;;;;;;;;4988272;28;19933;-83
2021/08/08 08:34:37;;;;;;;;;;;;;;;;;;4990352;28;19925;-86
2021/08/08 08:37:13;;;;;;;;;;;;;;;;;;4995379;28;19940;-84
2021/08/08 08:39:43;;;;;;;;;;;;;;;;;;4989182;28;19933;-82
2021/08/08 08:42:11;;;;;;;;;;;;;;;;;;5023882;28;19932;-82
2021/08/08 08:44:40;;;;;;;;;;;;;;;;;;4989390;28;19932;-82
2021/08/08 08:47:09;;;;;;;;;;;;;;;;;;4987522;28;19934;-80
2021/08/08 08:49:38;;;;;;;;;;;;;;;;;;5001503;28;19941;-87
2021/08/08 08:52:08;;;;;;;;;;;;;;;;;;5006058;28;19933;-86
2021/08/08 08:54:39;;;;;;;;;;;;;;;;;;5001116;28;19933;-80
2021/08/08 08:57:08;;;;;;;;;;;;;;;;;;4994970;28;19926;-84
2021/08/08 08:59:37;;;;;;;;;;;;;;;;;;4991663;28;19925;-84
2021/08/08 09:02:06;;;;;;;;;;;;;;;;;;4997292;28;19925;-87
2021/08/08 09:04:39;;;;;;;;;;;;;;;;;;5001361;28;20294;-86
2021/08/08 09:07:15;;;;;;;;;;;;;;;;;;5004370;28;20383;-86
2021/08/08 09:19:30;;;;;;;;;;;;;;;;;;4994993;28;19937;-90
2021/08/08 09:22:06;;;;;;;;;;;;;;;;;;4985292;28;20334;-82
2021/08/08 09:29:24;;;;;;;;;;;;;;;;;;4927710;28;19978;-87
2021/08/08 10:45:07;;;;;;;;;;;;;;;;;;5002813;28;20426;-83
2021/08/08 11:15:17;;;;;;;;;;;;;;;;;;5054967;28;19924;-86
2021/08/08 11:32:40;;;;;;;;;;;;;;;;;;5033832;28;19947;-86
2021/08/08 11:43:29;;;;;;;;;;;;;;;;;;4971280;28;19926;-86
2021/08/08 11:46:19;;;;;;;;;;;;;;;;;;4987729;28;19930;-90
2021/08/08 11:59:45;;;;;;;;;;;;;;;;;;4838906;29;19936;-85
2021/08/08 12:03:08;;;;;;;;;;;;;;;;;;4903915;29;19934;-84
2021/08/08 12:06:24;;;;;;;;;;;;;;;;;;4940048;28;20332;-84
2021/08/08 12:10:21;;;;;;;;;;;;;;;;;;4954686;29;19933;-89
2021/08/08 12:16:54;;;;;;;;;;;;;;;;;;4957552;29;19949;-86
2021/08/08 12:19:44;;;;;;;;;;;;;;;;;;4927165;29;19926;-83
2021/08/08 12:26:49;;;;;;;;;;;;;;;;;;4877794;29;19928;-89
2021/08/08 12:38:57;;;;;;;;;;;;;;;;;;4879117;29;20287;-86
2021/08/08 12:46:27;;;;;;;;;;;;;;;;;;;;;
2021/08/08 12:57:01;;;;;;;;;;;;;;;;;;4973837;28;19933;-87
2021/08/08 13:04:13;;;;;;;;;;;;;;;;;;4927463;28;19926;-87
2021/08/08 13:07:00;;;;;;;;;;;;;;;;;;4958953;28;19929;-87
2021/08/08 13:09:43;;;;;;;;;;;;;;;;;;5002478;28;20525;-87
2021/08/08 13:12:20;;;;;;;;;;;;;;;;;;4996107;28;19925;-85
2021/08/08 13:14:52;;;;;;;;;;;;;;;;;;4973456;28;20395;-87
2021/08/08 13:30:29;;;;;;;;;;;;;;;;;;4981211;28;19928;-87
2021/08/08 13:33:09;;;;;;;;;;;;;;;;;;4951632;28;19926;-88
2021/08/08 13:42:31;;;;;;;;;;;;;;;;;;4983055;28;19929;-87
2021/08/08 13:45:08;;;;;;;;;;;;;;;;;;4977417;28;19932;-88
2021/08/08 13:48:10;;;;;;;;;;;;;;;;;;4994806;28;19961;-87
2021/08/08 13:50:49;;;;;;;;;;;;;;;;;;4993122;28;19948;-87
2021/08/08 13:53:29;;;;;;;;;;;;;;;;;;4992826;28;19925;-88
2021/08/08 13:55:59;;;;;;;;;;;;;;;;;;4998663;28;19933;-87
2021/08/08 13:58:29;;;;;;;;;;;;;;;;;;4991145;28;19933;-88
2021/08/08 14:01:24;;;;;;;;;;;;;;;;;;5008045;28;19930;-89
2021/08/08 14:03:59;;;;;;;;;;;;;;;;;;5002031;28;19925;-86
2021/08/08 14:06:27;;;;;;;;;;;;;;;;;;4986320;28;19944;-88
2021/08/08 14:08:55;;;;;;;;;;;;;;;;;;5002437;28;20145;-86
2021/08/08 14:11:23;;;;;;;;;;;;;;;;;;4989382;28;20418;-88
2021/08/08 14:13:54;;;;;;;;;;;;;;;;;;5003872;28;19936;-88
2021/08/08 14:16:25;;;;;;;;;;;;;;;;;;4996176;28;19932;-87
2021/08/08 14:21:33;;;;;;;;;;;;;;;;;;4974714;28;20366;-92
2021/08/08 14:24:01;;;;;;;;;;;;;;;;;;4971210;28;19926;-90
2021/08/08 14:26:29;;;;;;;;;;;;;;;;;;4980495;28;19926;-90
2021/08/08 14:28:57;;;;;;;;;;;;;;;;;;4969430;28;19925;-90
2021/08/08 14:31:25;;;;;;;;;;;;;;;;;;4966604;28;20393;-90
2021/08/08 14:33:54;;;;;;;;;;;;;;;;;;4988636;28;19926;-91
2021/08/08 14:36:22;;;;;;;;;;;;;;;;;;4995362;28;20299;-90
2021/08/08 14:38:51;;;;;;;;;;;;;;;;;;4979164;28;19926;-90
2021/08/08 14:41:20;;;;;;;;;;;;;;;;;;4978737;28;19926;-90
2021/08/08 14:43:48;;;;;;;;;;;;;;;;;;4969899;28;19926;-91
2021/08/08 14:46:16;;;;;;;;;;;;;;;;;;4979831;28;19926;-91
2021/08/08 14:48:44;;;;;;;;;;;;;;;;;;4962958;28;20417;-90
2021/08/08 14:51:12;;;;;;;;;;;;;;;;;;4975311;28;19927;-92
2021/08/08 14:53:40;;;;;;;;;;;;;;;;;;4978755;28;19926;-90
2021/08/08 14:56:10;;;;;;;;;;;;;;;;;;4979488;28;19926;-91
2021/08/08 14:58:38;;;;;;;;;;;;;;;;;;4980518;28;19945;-90
2021/08/08 15:01:06;;;;;;;;;;;;;;;;;;4979239;28;19930;-91
2021/08/08 15:03:34;;;;;;;;;;;;;;;;;;4985587;28;19926;-91
2021/08/08 15:06:03;;;;;;;;;;;;;;;;;;4983065;28;20413;-90
2021/08/08 15:08:31;;;;;;;;;;;;;;;;;;4994674;28;20310;-92
2021/08/08 15:10:59;;;;;;;;;;;;;;;;;;4987906;28;19937;-90
2021/08/08 15:13:28;;;;;;;;;;;;;;;;;;4996544;28;19926;-93
2021/08/08 15:15:56;;;;;;;;;;;;;;;;;;5012379;28;19913;-93
2021/08/08 15:18:25;;;;;;;;;;;;;;;;;;4994353;28;19926;-93
2021/08/08 15:20:53;;;;;;;;;;;;;;;;;;4987786;28;19930;-93
2021/08/08 15:23:21;;;;;;;;;;;;;;;;;;4979873;28;20394;-94
2021/08/08 15:25:49;;;;;;;;;;;;;;;;;;4979180;28;19937;-92
2021/08/08 15:28:17;;;;;;;;;;;;;;;;;;4979866;28;20412;-91
2021/08/08 15:30:47;;;;;;;;;;;;;;;;;;4967312;28;19934;-91
2021/08/08 15:33:15;;;;;;;;;;;;;;;;;;4962435;28;19930;-90
2021/08/08 15:35:43;;;;;;;;;;;;;;;;;;4980888;28;19925;-92
2021/08/08 15:38:11;;;;;;;;;;;;;;;;;;4985102;28;19929;-92
2021/08/08 15:40:39;;;;;;;;;;;;;;;;;;4994241;28;19929;-92
2021/08/08 15:43:25;;;;;;;;;;;;;;;;;;4980450;28;19925;-91
2021/08/08 15:45:54;;;;;;;;;;;;;;;;;;4968190;28;19933;-92
2021/08/08 15:48:23;;;;;;;;;;;;;;;;;;5004136;28;19925;-92
2021/08/08 15:50:51;;;;;;;;;;;;;;;;;;4965817;28;19926;-93
2021/08/08 15:53:19;;;;;;;;;;;;;;;;;;4971550;28;20404;-92
2021/08/08 15:55:47;;;;;;;;;;;;;;;;;;4979416;28;19930;-93
2021/08/08 15:58:16;;;;;;;;;;;;;;;;;;4988478;28;20301;-91
2021/08/08 16:00:44;;;;;;;;;;;;;;;;;;4961178;28;19962;-92
2021/08/08 16:03:13;;;;;;;;;;;;;;;;;;4977484;28;19925;-93
2021/08/08 16:05:42;;;;;;;;;;;;;;;;;;4977819;28;19926;-92
2021/08/08 16:08:10;;;;;;;;;;;;;;;;;;4961753;28;19926;-93
2021/08/08 16:10:38;;;;;;;;;;;;;;;;;;4978948;28;19926;-92
2021/08/08 16:13:06;;;;;;;;;;;;;;;;;;4972365;28;19937;-94
2021/08/08 16:15:34;;;;;;;;;;;;;;;;;;4960803;28;20346;-92
2021/08/08 16:18:02;;;;;;;;;;;;;;;;;;4965388;28;19926;-92
2021/08/08 16:20:32;;;;;;;;;;;;;;;;;;4967285;28;19926;-93
2021/08/08 16:23:00;;;;;;;;;;;;;;;;;;4964951;28;20409;-92
2021/08/08 16:25:28;;;;;;;;;;;;;;;;;;4979937;28;19933;-93
2021/08/08 16:27:56;;;;;;;;;;;;;;;;;;4995529;28;19926;-93
2021/08/08 16:30:25;;;;;;;;;;;;;;;;;;4984394;28;20373;-92
2021/08/08 16:32:53;;;;;;;;;;;;;;;;;;4966244;28;19985;-92
2021/08/08 16:35:21;;;;;;;;;;;;;;;;;;4963573;28;19934;-92
2021/08/08 16:37:52;;;;;;;;;;;;;;;;;;4961796;28;19934;-93
2021/08/08 16:40:21;;;;;;;;;;;;;;;;;;4977937;28;19929;-94
2021/08/08 16:42:49;;;;;;;;;;;;;;;;;;4978617;28;19948;-93
2021/08/08 16:45:17;;;;;;;;;;;;;;;;;;4981685;28;20416;-93
2021/08/08 16:47:45;;;;;;;;;;;;;;;;;;4981546;28;19933;-92
2021/08/08 16:50:13;;;;;;;;;;;;;;;;;;4981062;28;19930;-93
2021/08/08 16:52:42;;;;;;;;;;;;;;;;;;4978531;28;20398;-92
2021/08/08 16:55:11;;;;;;;;;;;;;;;;;;4963409;28;19926;-92
2021/08/08 16:57:40;;;;;;;;;;;;;;;;;;4959371;28;19926;-92
2021/08/08 17:00:08;;;;;;;;;;;;;;;;;;4979270;28;19933;-93
2021/08/08 17:02:37;;;;;;;;;;;;;;;;;;4964684;28;20484;-91
2021/08/08 17:05:06;;;;;;;;;;;;;;;;;;4980812;28;19933;-92
2021/08/08 17:07:34;;;;;;;;;;;;;;;;;;4978622;28;19926;-93
2021/08/08 17:10:02;;;;;;;;;;;;;;;;;;4967973;28;19933;-93
2021/08/08 17:12:32;;;;;;;;;;;;;;;;;;4977289;28;19925;-93
2021/08/08 17:15:02;;;;;;;;;;;;;;;;;;4975980;28;19926;-92
2021/08/08 17:17:30;;;;;;;;;;;;;;;;;;4959573;28;20394;-92
2021/08/08 17:19:59;;;;;;;;;;;;;;;;;;4967282;28;19926;-92
2021/08/08 17:22:27;;;;;;;;;;;;;;;;;;4975174;28;20226;-93
2021/08/08 17:24:55;;;;;;;;;;;;;;;;;;4958473;28;20300;-92
2021/08/08 17:27:24;;;;;;;;;;;;;;;;;;4951949;28;19933;-93
2021/08/08 17:29:53;;;;;;;;;;;;;;;;;;4977251;28;19925;-94
2021/08/08 17:32:22;;;;;;;;;;;;;;;;;;4979236;28;19925;-94
2021/08/08 17:34:51;;;;;;;;;;;;;;;;;;4996892;28;19940;-93
2021/08/08 17:37:19;;;;;;;;;;;;;;;;;;4981147;28;19925;-93
2021/08/08 17:39:47;;;;;;;;;;;;;;;;;;4964059;28;19933;-94
2021/08/08 17:42:16;;;;;;;;;;;;;;;;;;4982194;28;19952;-93
2021/08/08 17:44:45;;;;;;;;;;;;;;;;;;4979675;28;19925;-93
2021/08/08 17:47:14;;;;;;;;;;;;;;;;;;4965373;28;19926;-92
2021/08/08 17:49:43;;;;;;;;;;;;;;;;;;4983818;28;19926;-93
2021/08/08 17:52:11;;;;;;;;;;;;;;;;;;4997145;28;19932;-94
2021/08/08 17:54:39;;;;;;;;;;;;;;;;;;4991822;28;19929;-94
2021/08/08 17:57:07;;;;;;;;;;;;;;;;;;4992074;28;19925;-95
2021/08/08 17:59:35;;;;;;;;;;;;;;;;;;4993602;28;20081;-92
2021/08/08 18:02:04;;;;;;;;;;;;;;;;;;5000051;28;19932;-93
2021/08/08 18:04:34;;;;;;;;;;;;;;;;;;5005998;28;19926;-95
2021/08/08 18:07:02;;;;;;;;;;;;;;;;;;4992029;28;19926;-94
2021/08/08 18:09:30;;;;;;;;;;;;;;;;;;4996543;28;19936;-95
2021/08/08 18:11:58;;;;;;;;;;;;;;;;;;5000842;28;19925;-95
2021/08/08 18:14:27;;;;;;;;;;;;;;;;;;5002835;28;19989;-95
2021/08/08 18:16:57;;;;;;;;;;;;;;;;;;4998693;28;20192;-94
2021/08/08 18:19:25;;;;;;;;;;;;;;;;;;4995406;28;19944;-94
2021/08/08 18:21:55;;;;;;;;;;;;;;;;;;5014552;28;19926;-94
2021/08/08 18:24:23;;;;;;;;;;;;;;;;;;4998895;28;19932;-93
2021/08/08 18:26:51;;;;;;;;;;;;;;;;;;4999993;28;19930;-95
2021/08/08 18:29:19;;;;;;;;;;;;;;;;;;5000532;28;19936;-93
2021/08/08 18:31:48;;;;;;;;;;;;;;;;;;5018983;28;19926;-94
2021/08/08 18:34:16;;;;;;;;;;;;;;;;;;5001193;28;19914;-94
2021/08/08 18:36:44;;;;;;;;;;;;;;;;;;5003894;28;19921;-94
2021/08/08 18:39:14;;;;;;;;;;;;;;;;;;5003805;28;19917;-93
2021/08/08 18:41:42;;;;;;;;;;;;;;;;;;4986257;28;19940;-95
2021/08/08 18:44:10;;;;;;;;;;;;;;;;;;5003525;28;19921;-94
2021/08/08 18:46:38;;;;;;;;;;;;;;;;;;4986459;28;19926;-94
2021/08/08 18:49:06;;;;;;;;;;;;;;;;;;5003735;28;19914;-95
2021/08/08 18:51:35;;;;;;;;;;;;;;;;;;4987525;28;19932;-95
2021/08/08 18:54:03;;;;;;;;;;;;;;;;;;5003569;28;19909;-95
2021/08/08 18:56:34;;;;;;;;;;;;;;;;;;4984176;28;19925;-95
2021/08/08 18:59:02;;;;;;;;;;;;;;;;;;5001787;28;19929;-95
2021/08/08 19:01:30;;;;;;;;;;;;;;;;;;5002583;28;19909;-95
2021/08/08 19:03:59;;;;;;;;;;;;;;;;;;5002639;28;19936;-95
2021/08/08 19:06:27;;;;;;;;;;;;;;;;;;5003809;28;19926;-95
2021/08/08 19:08:55;;;;;;;;;;;;;;;;;;4986975;28;19926;-95
2021/08/08 19:11:23;;;;;;;;;;;;;;;;;;4987435;28;19914;-96
2021/08/08 19:13:53;;;;;;;;;;;;;;;;;;4987223;28;19930;-93
2021/08/08 19:16:23;;;;;;;;;;;;;;;;;;5002759;28;19942;-94
2021/08/08 19:18:51;;;;;;;;;;;;;;;;;;4986849;28;19930;-94
2021/08/08 19:21:20;;;;;;;;;;;;;;;;;;5002357;28;19914;-96
2021/08/08 19:23:48;;;;;;;;;;;;;;;;;;4985967;28;19913;-95
2021/08/08 19:26:16;;;;;;;;;;;;;;;;;;4984347;28;19926;-96
2021/08/08 19:28:45;;;;;;;;;;;;;;;;;;4993455;28;19924;-95
2021/08/08 19:31:14;;;;;;;;;;;;;;;;;;5003201;28;19936;-93
2021/08/08 19:33:43;;;;;;;;;;;;;;;;;;4983255;28;19922;-95
2021/08/08 19:36:11;;;;;;;;;;;;;;;;;;5011227;28;19909;-96
2021/08/08 19:38:39;;;;;;;;;;;;;;;;;;4987009;28;19910;-93
2021/08/08 19:41:08;;;;;;;;;;;;;;;;;;5002342;28;19926;-95
2021/08/08 19:43:36;;;;;;;;;;;;;;;;;;4982134;28;20114;-94
2021/08/08 19:46:04;;;;;;;;;;;;;;;;;;4981952;28;19926;-95
2021/08/08 19:48:34;;;;;;;;;;;;;;;;;;4997365;28;19936;-94
2021/08/08 19:51:02;;;;;;;;;;;;;;;;;;4983005;28;19930;-93
2021/08/08 19:53:31;;;;;;;;;;;;;;;;;;4999919;28;19914;-93
2021/08/08 19:55:59;;;;;;;;;;;;;;;;;;4997227;28;19925;-93
2021/08/08 19:58:27;;;;;;;;;;;;;;;;;;4997922;28;19926;-95
2021/08/08 20:00:55;;;;;;;;;;;;;;;;;;4996942;28;19926;-94
2021/08/08 20:03:24;;;;;;;;;;;;;;;;;;4997337;28;19926;-93
2021/08/08 20:05:53;;;;;;;;;;;;;;;;;;4997881;28;20510;-95
2021/08/08 20:08:22;;;;;;;;;;;;;;;;;;4998143;28;19926;-93
2021/08/08 20:10:50;;;;;;;;;;;;;;;;;;4998248;28;19926;-94
2021/08/08 20:13:18;;;;;;;;;;;;;;;;;;4997890;28;19932;-94
2021/08/08 20:15:47;;;;;;;;;;;;;;;;;;4998079;28;19926;-96
2021/08/08 20:18:15;;;;;;;;;;;;;;;;;;4999392;28;19914;-96
2021/08/08 20:20:44;;;;;;;;;;;;;;;;;;4999215;28;19940;-95
2021/08/08 20:23:14;;;;;;;;;;;;;;;;;;4985006;28;19930;-94
2021/08/08 20:25:43;;;;;;;;;;;;;;;;;;5002085;28;19918;-94
2021/08/08 20:28:28;;;;;;;;;;;;;;;;;;5002274;28;19925;-95
2021/08/08 20:30:56;;;;;;;;;;;;;;;;;;4985274;28;20404;-95
2021/08/08 20:33:24;;;;;;;;;;;;;;;;;;5001702;28;19925;-95
2021/08/08 20:35:53;;;;;;;;;;;;;;;;;;4985205;28;19932;-94
2021/08/08 20:38:22;;;;;;;;;;;;;;;;;;4986042;28;19910;-94
2021/08/08 20:40:51;;;;;;;;;;;;;;;;;;5001373;28;19910;-95
2021/08/08 20:43:19;;;;;;;;;;;;;;;;;;4985682;28;19910;-95
2021/08/08 20:45:47;;;;;;;;;;;;;;;;;;5001758;28;19910;-94
2021/08/08 20:48:20;;;;;;;;;;;;;;;;;;4985993;28;19913;-95
2021/08/08 20:50:48;;;;;;;;;;;;;;;;;;5002069;28;19913;-95
2021/08/08 20:53:18;;;;;;;;;;;;;;;;;;4985857;28;19940;-95
2021/08/08 20:55:47;;;;;;;;;;;;;;;;;;5001317;28;19918;-96
2021/08/08 20:58:16;;;;;;;;;;;;;;;;;;5002050;28;19909;-96
2021/08/08 21:00:44;;;;;;;;;;;;;;;;;;5001649;28;20813;-94
2021/08/08 21:03:14;;;;;;;;;;;;;;;;;;5001952;28;19913;-94
2021/08/08 21:05:43;;;;;;;;;;;;;;;;;;4985856;28;19914;-96